Vevay, IN (47043)

7:56 PM EST on February 05, 2016 (GMT -0500)
Riveraire | | Change Station
CLOSE
Current Station
Personal Weather Station
Location: Vevay, IN
Elevation: 480 ft
Nearby Weather Stations

Elev 480 ft 38.73 °N, 85.09 °W | Updated 1 second ago

Partly Cloudy
Partly Cloudy
32.9 °F
Feels Like 33 °F
N
0.0
Wind Variable Wind from SW
Gusts 0.0 mph

Today
High -- | Low -- °F
--% Chance of Precip.
Yesterday
High -- | Low -- °F
Precip. -- in
Pressure 30.37 in
Visibility 10.0 miles
Clouds Few 6000 ft
Scattered Clouds 20000 ft
Mostly Cloudy 25000 ft
Windchill 33 °F
Dew Point 28 °F
Humidity 81%
Rainfall 0.00 in
Snow Depth Not available.
7:42 AM 6:06 PM
Waning Crescent, 8% visible
METAR KCVG 060052Z 19005KT 10SM FEW060 SCT200 BKN250 01/M07 A3034 RMK AO2 SLP282 T00061072 $
Pressure 30.37 in
Visibility 10.0 miles
Clouds Few 6000 ft
Scattered Clouds 20000 ft
Mostly Cloudy 25000 ft
Windchill 33 °F
Dew Point 28 °F
Humidity 81%
Rainfall 0.00 in
Snow Depth Not available.
7:42 AM 6:06 PM
Waning Crescent, 8% visible
METAR KCVG 060052Z 19005KT 10SM FEW060 SCT200 BKN250 01/M07 A3034 RMK AO2 SLP282 T00061072 $

10-Day Weather Forecast

Almanac

Astronomy

Feb. 05, 2016 Rise Set
Actual Time
Civil Twilight
Nautical Twilight
Astronomical Twilight
Moon
Length of Visible Light
Length of Day
Tomorrow will be .
, % of the Moon is Illuminated

Today's Extremes

State Highs State Lows

Community

WunderPhotos

Upload Photos

1,890,900 photos uploaded!

WunderBlog® & News

Nearby

Air Quality

  Air Quality AQ Index Pollutant
Not available.

Snow Depth

Station Depth Elevation

Earthquake Activity

City Distance Mag. Time & Date
Minimum magnitude displayed is 2.5.

Coastal Water Temperatures

Place Temperature

Stations

Nearby Weather Stations

Station Location Temp. Windchill Dew Point Humidity Wind Precip. Elev Updated Type
                   

Watches & Warnings

There are currently no watches in effect.